Time;durP1;ratioP1;P1;durP2;ratioP2;P2;SDS_P1;SDS_P2;PMS_P1;PMS_P2;Temp;Humidity;BMP_temperature;BMP_pressure;BME280_temperature;BME280_humidity;BME280_pressure;Samples;Min_cycle;Max_cycle;Signal;HPM_P1;HPM_P2
2023/04/16 00:02:21;;;;;;;40.73;26.20;;;9.20;99.90;;;;;;5014068;28;20579;-86
2023/04/16 00:04:46;;;;;;;40.83;27.40;;;9.20;99.90;;;;;;5015312;28;20178;-83
2023/04/16 00:07:12;;;;;;;37.93;25.57;;;9.10;99.90;;;;;;5013876;28;20210;-83
2023/04/16 00:09:38;;;;;;;36.77;26.37;;;9.10;99.90;;;;;;5013922;28;20211;-83
2023/04/16 00:12:05;;;;;;;35.97;24.57;;;9.10;99.90;;;;;;5013352;28;20194;-83
2023/04/16 00:14:30;;;;;;;36.53;24.60;;;9.00;99.90;;;;;;5014991;28;20190;-83
2023/04/16 00:16:56;;;;;;;42.53;26.67;;;8.90;99.90;;;;;;5014064;28;20305;-83
2023/04/16 00:19:22;;;;;;;34.58;25.02;;;9.00;99.90;;;;;;5013532;28;20187;-83
2023/04/16 00:21:47;;;;;;;38.60;24.77;;;8.90;99.90;;;;;;5014910;28;20171;-83
2023/04/16 00:24:13;;;;;;;39.13;25.20;;;8.90;99.90;;;;;;5014780;28;20242;-83
2023/04/16 00:26:39;;;;;;;40.27;24.67;;;8.90;99.90;;;;;;5013492;28;20187;-83
2023/04/16 00:29:05;;;;;;;39.53;26.13;;;8.80;99.90;;;;;;5013365;28;20182;-83
2023/04/16 00:31:32;;;;;;;36.80;24.17;;;8.80;99.90;;;;;;5013520;28;20187;-83
2023/04/16 00:33:59;;;;;;;39.90;25.20;;;8.80;99.90;;;;;;5014788;28;20183;-83
2023/04/16 00:36:26;;;;;;;38.07;26.03;;;8.80;99.90;;;;;;5014502;28;20163;-84
2023/04/16 00:38:53;;;;;;;44.00;25.57;;;8.70;99.90;;;;;;5014889;28;20525;-83
2023/04/16 00:41:19;;;;;;;38.50;24.90;;;8.70;99.90;;;;;;5013353;28;20179;-83
2023/04/16 00:43:45;;;;;;;38.40;26.20;;;8.70;99.90;;;;;;5013287;28;20321;-85
2023/04/16 00:46:11;;;;;;;41.77;25.50;;;8.60;99.90;;;;;;5013048;28;20214;-83
2023/04/16 00:48:39;;;;;;;40.13;26.40;;;8.60;99.90;;;;;;5014581;28;20269;-83
2023/04/16 00:51:07;;;;;;;42.60;26.60;;;8.60;99.90;;;;;;5013066;28;20168;-84
2023/04/16 00:53:34;;;;;;;42.63;25.67;;;8.60;99.90;;;;;;5014339;28;20171;-84
2023/04/16 00:56:03;;;;;;;38.63;27.17;;;8.50;99.90;;;;;;5014506;28;20229;-84
2023/04/16 00:58:29;;;;;;;43.00;26.50;;;8.50;99.90;;;;;;5014386;28;20207;-83
2023/04/16 01:00:55;;;;;;;39.23;27.13;;;8.60;99.90;;;;;;5014104;28;20554;-83
2023/04/16 01:03:23;;;;;;;37.83;25.40;;;8.50;99.90;;;;;;5012800;28;20187;-84
2023/04/16 01:05:49;;;;;;;41.70;26.07;;;8.40;99.90;;;;;;5014402;28;20190;-83
2023/04/16 01:08:17;;;;;;;37.17;24.10;;;8.40;99.90;;;;;;5013085;28;20187;-84
2023/04/16 01:10:43;;;;;;;40.93;26.20;;;8.40;99.90;;;;;;5014567;28;20171;-81
2023/04/16 01:13:09;;;;;;;44.90;25.57;;;8.50;99.90;;;;;;5012439;28;20190;-82
2023/04/16 01:15:36;;;;;;;40.10;25.53;;;8.50;99.90;;;;;;5012554;28;20183;-82
2023/04/16 01:18:01;;;;;;;40.67;25.90;;;8.40;99.90;;;;;;5013837;28;20265;-82
2023/04/16 01:20:28;;;;;;;40.33;25.47;;;8.40;99.90;;;;;;5012680;28;20633;-82
2023/04/16 01:22:53;;;;;;;42.10;24.97;;;8.40;99.90;;;;;;5013534;28;20529;-82
2023/04/16 01:25:19;;;;;;;41.03;24.63;;;8.30;99.90;;;;;;5013985;28;20172;-82
2023/04/16 01:27:49;;;;;;;35.93;24.90;;;8.30;99.90;;;;;;5012614;28;20182;-82
2023/04/16 01:30:14;;;;;;;46.93;25.87;;;8.30;99.90;;;;;;5012262;28;20171;-82
2023/04/16 01:32:40;;;;;;;42.87;26.40;;;8.30;99.90;;;;;;5013717;28;20509;-82
2023/04/16 01:35:06;;;;;;;39.13;25.17;;;8.30;99.90;;;;;;5012546;28;20210;-82
2023/04/16 01:37:32;;;;;;;41.53;26.20;;;8.30;99.90;;;;;;5013718;28;20207;-82
2023/04/16 01:39:58;;;;;;;38.70;24.43;;;8.30;99.90;;;;;;5012526;28;20182;-82
2023/04/16 01:42:23;;;;;;;41.10;25.30;;;8.30;99.90;;;;;;5012351;28;20191;-82
2023/04/16 01:44:49;;;;;;;40.60;24.73;;;8.30;99.90;;;;;;5012121;28;20314;-82
2023/04/16 01:47:15;;;;;;;45.07;25.80;;;8.30;99.90;;;;;;5012366;28;20230;-82
2023/04/16 01:49:42;;;;;;;37.93;25.37;;;8.20;99.90;;;;;;5014380;28;20190;-81
2023/04/16 01:54:43;;;;;;;47.20;26.60;;;8.20;99.90;;;;;;5173749;23;20232;-82
2023/04/16 01:57:10;;;;;;;37.63;25.33;;;8.10;99.90;;;;;;5077324;28;20265;-83
2023/04/16 01:59:35;;;;;;;39.27;25.13;;;8.10;99.90;;;;;;5059255;28;20173;-82
2023/04/16 02:02:10;;;;;;;43.00;25.90;;;8.20;99.90;;;;;;5059234;28;20517;-83
2023/04/16 02:04:40;;;;;;;40.53;25.53;;;8.10;99.90;;;;;;5059231;28;20219;-82
2023/04/16 02:07:07;;;;;;;38.57;24.90;;;8.10;99.90;;;;;;5059327;28;20197;-82
2023/04/16 02:09:34;;;;;;;45.37;25.07;;;8.10;99.90;;;;;;5058885;28;20555;-82
2023/04/16 02:12:02;;;;;;;46.40;26.10;;;8.10;99.90;;;;;;5058551;28;20181;-82
2023/04/16 02:14:28;;;;;;;43.07;25.43;;;8.10;99.90;;;;;;5059083;28;20272;-82
2023/04/16 02:16:54;;;;;;;41.80;26.40;;;8.10;99.90;;;;;;5076902;28;20204;-82
2023/04/16 02:19:20;;;;;;;44.73;26.20;;;8.10;99.90;;;;;;5058949;28;20185;-84
2023/04/16 02:21:47;;;;;;;41.07;26.23;;;8.00;99.90;;;;;;5058941;28;20188;-84
2023/04/16 02:24:12;;;;;;;49.23;26.53;;;8.10;99.90;;;;;;5076208;28;20215;-84
2023/04/16 02:26:38;;;;;;;44.40;26.23;;;8.00;99.90;;;;;;5058898;28;20181;-84
2023/04/16 02:29:04;;;;;;;45.53;27.47;;;7.90;99.90;;;;;;5076670;28;20181;-83
2023/04/16 02:31:30;;;;;;;44.30;26.07;;;8.00;99.90;;;;;;5076507;28;20181;-84
2023/04/16 02:33:56;;;;;;;42.43;26.33;;;8.00;99.90;;;;;;5058716;28;20185;-84
2023/04/16 02:36:22;;;;;;;40.43;26.33;;;8.00;99.90;;;;;;5058845;28;20192;-84
2023/04/16 02:38:48;;;;;;;47.87;26.63;;;8.00;99.90;;;;;;5058431;28;20216;-84
2023/04/16 02:41:13;;;;;;;45.80;26.53;;;8.00;99.90;;;;;;5076301;28;20881;-84
2023/04/16 02:43:39;;;;;;;43.73;26.93;;;7.90;99.90;;;;;;5058575;28;20296;-84
2023/04/16 02:46:05;;;;;;;41.67;25.90;;;7.90;99.90;;;;;;5058518;28;20181;-84
2023/04/16 02:48:31;;;;;;;39.87;25.53;;;7.90;99.90;;;;;;5076557;28;20180;-84
2023/04/16 02:50:57;;;;;;;41.27;25.90;;;7.90;99.90;;;;;;5058673;28;20771;-84
2023/04/16 02:53:23;;;;;;;44.37;27.53;;;7.90;99.90;;;;;;5080657;28;20267;-84
2023/04/16 02:55:53;;;;;;;41.83;25.73;;;7.90;99.90;;;;;;5078468;28;20214;-84
2023/04/16 02:58:23;;;;;;;43.43;26.07;;;7.90;99.90;;;;;;5078356;28;20216;-84
2023/04/16 03:00:49;;;;;;;44.13;25.70;;;7.90;99.90;;;;;;5096302;28;20181;-84
2023/04/16 03:03:15;;;;;;;39.60;25.33;;;7.90;99.90;;;;;;5078411;28;20213;-84
2023/04/16 03:05:41;;;;;;;39.80;24.13;;;7.90;99.90;;;;;;5096567;28;20176;-84
2023/04/16 03:08:07;;;;;;;39.00;24.90;;;8.00;99.90;;;;;;5096167;28;20245;-84
2023/04/16 03:10:34;;;;;;;42.33;24.83;;;7.90;99.90;;;;;;5096188;28;20204;-84
2023/04/16 03:13:00;;;;;;;43.87;26.10;;;7.90;99.90;;;;;;5077452;28;20184;-85
2023/04/16 03:15:26;;;;;;;43.67;24.90;;;7.80;99.90;;;;;;5094820;28;20203;-84
2023/04/16 03:17:52;;;;;;;39.67;25.00;;;7.80;99.90;;;;;;5078213;28;20219;-84
2023/04/16 03:20:18;;;;;;;40.90;25.20;;;7.80;99.90;;;;;;5078013;28;20191;-84
2023/04/16 03:22:45;;;;;;;43.00;25.33;;;7.80;99.90;;;;;;5096022;28;20172;-84
2023/04/16 03:25:11;;;;;;;39.97;25.17;;;7.80;99.90;;;;;;5057939;28;20196;-84
2023/04/16 03:27:38;;;;;;;39.57;24.67;;;7.80;99.90;;;;;;5057810;28;20181;-84
2023/04/16 03:30:06;;;;;;;46.00;24.27;;;7.70;99.90;;;;;;5057741;28;20260;-84
2023/04/16 03:32:31;;;;;;;36.70;24.00;;;7.70;99.90;;;;;;5057523;28;20188;-84
2023/04/16 03:34:57;;;;;;;42.17;24.83;;;7.70;99.90;;;;;;5075779;28;20184;-84
2023/04/16 03:37:23;;;;;;;46.13;25.03;;;7.70;99.90;;;;;;5075603;28;20640;-84
2023/04/16 03:39:49;;;;;;;43.60;25.57;;;7.70;99.90;;;;;;5057266;28;20216;-84
2023/04/16 03:42:15;;;;;;;39.47;24.47;;;7.70;99.90;;;;;;5075343;28;20223;-84
2023/04/16 03:44:40;;;;;;;42.43;25.03;;;7.70;99.90;;;;;;5057522;28;20212;-84
2023/04/16 03:47:06;;;;;;;38.40;24.23;;;7.70;99.90;;;;;;5057590;28;20529;-84
2023/04/16 03:49:32;;;;;;;38.30;24.53;;;7.70;99.90;;;;;;5057430;28;20189;-84
2023/04/16 03:51:57;;;;;;;37.97;23.90;;;7.70;99.90;;;;;;5057254;28;20576;-83
2023/04/16 03:54:23;;;;;;;37.30;24.23;;;7.70;99.90;;;;;;5056824;28;20240;-84
2023/04/16 03:56:49;;;;;;;39.97;24.20;;;7.70;99.90;;;;;;5075299;28;20257;-83
2023/04/16 03:59:14;;;;;;;41.47;25.03;;;7.70;99.90;;;;;;5057014;28;20185;-83
2023/04/16 04:01:40;;;;;;;39.33;24.13;;;7.70;99.90;;;;;;5075128;28;20207;-84
2023/04/16 04:04:06;;;;;;;39.23;24.20;;;7.70;99.90;;;;;;5057297;28;20223;-84
2023/04/16 04:06:32;;;;;;;36.67;23.73;;;7.80;99.90;;;;;;5057047;28;20184;-84
2023/04/16 04:08:58;;;;;;;41.03;24.27;;;7.80;99.90;;;;;;5074737;28;20189;-84
2023/04/16 04:11:24;;;;;;;43.07;24.60;;;7.80;99.90;;;;;;5073829;28;20332;-84
2023/04/16 04:13:49;;;;;;;40.70;24.67;;;7.70;99.90;;;;;;5056820;28;20627;-84
2023/04/16 04:16:15;;;;;;;41.43;25.20;;;7.70;99.90;;;;;;5074945;28;20191;-84
2023/04/16 04:18:41;;;;;;;43.07;24.57;;;7.70;99.90;;;;;;5056983;28;20299;-84
2023/04/16 04:21:07;;;;;;;43.07;25.27;;;7.70;99.90;;;;;;5074525;28;20177;-84
2023/04/16 04:23:36;;;;;;;40.23;24.97;;;7.70;99.90;;;;;;5056485;28;20280;-84
2023/04/16 04:26:04;;;;;;;43.17;25.60;;;7.70;99.90;;;;;;5056596;28;20184;-84
2023/04/16 04:28:30;;;;;;;42.03;25.90;;;7.70;99.90;;;;;;5056794;28;20183;-84
2023/04/16 04:30:57;;;;;;;40.47;24.47;;;7.70;99.90;;;;;;5074224;28;20181;-84
2023/04/16 04:33:23;;;;;;;36.27;23.30;;;7.60;99.90;;;;;;5074430;28;20179;-84
2023/04/16 04:35:49;;;;;;;39.47;25.27;;;7.70;99.90;;;;;;5074773;28;20189;-83
2023/04/16 04:38:18;;;;;;;36.20;23.83;;;7.70;99.90;;;;;;5056135;28;20205;-84
2023/04/16 04:40:44;;;;;;;36.27;24.33;;;7.70;99.90;;;;;;5056202;28;20192;-84
2023/04/16 04:43:10;;;;;;;37.77;23.33;;;7.60;99.90;;;;;;5056734;28;20185;-83
2023/04/16 04:45:36;;;;;;;39.17;24.83;;;7.70;99.90;;;;;;5056337;28;20189;-84
2023/04/16 04:48:02;;;;;;;37.53;24.07;;;7.70;99.90;;;;;;5056391;28;20611;-84
2023/04/16 04:50:28;;;;;;;38.17;24.47;;;7.60;99.90;;;;;;5055840;28;20272;-84
2023/04/16 04:52:53;;;;;;;42.83;26.50;;;7.60;99.90;;;;;;5055792;28;20184;-84
2023/04/16 04:55:19;;;;;;;41.17;25.67;;;7.60;99.90;;;;;;5055887;28;20221;-84
2023/04/16 04:57:45;;;;;;;42.50;25.03;;;7.60;99.90;;;;;;5055911;28;20293;-84
2023/04/16 05:00:11;;;;;;;45.90;25.63;;;7.60;99.90;;;;;;5056050;28;20196;-84
2023/04/16 05:02:37;;;;;;;43.73;26.00;;;7.60;99.90;;;;;;5073940;28;20177;-84
2023/04/16 05:05:04;;;;;;;40.67;26.00;;;7.50;99.90;;;;;;5073885;28;20178;-83
2023/04/16 05:07:30;;;;;;;42.97;25.97;;;7.50;99.90;;;;;;5056064;28;20264;-83
2023/04/16 05:09:56;;;;;;;46.57;26.13;;;7.60;99.90;;;;;;5073449;28;20192;-84
2023/04/16 05:12:21;;;;;;;40.83;25.27;;;7.60;99.90;;;;;;5073183;28;20608;-83
2023/04/16 05:14:47;;;;;;;41.80;25.03;;;7.60;99.90;;;;;;5073927;28;20185;-83
2023/04/16 05:17:13;;;;;;;41.43;24.97;;;7.60;99.90;;;;;;5073783;28;20201;-84
2023/04/16 05:19:38;;;;;;;39.43;24.17;;;7.60;99.90;;;;;;5073741;28;20244;-83
2023/04/16 05:22:04;;;;;;;37.67;24.73;;;7.60;99.90;;;;;;5073526;28;20510;-84
2023/04/16 05:24:30;;;;;;;41.23;24.87;;;7.60;99.90;;;;;;5054534;28;20185;-84
2023/04/16 05:26:56;;;;;;;38.50;24.20;;;7.60;99.90;;;;;;5055658;28;20291;-84
2023/04/16 05:29:22;;;;;;;36.90;24.97;;;7.60;99.90;;;;;;5055736;28;20184;-84
2023/04/16 05:31:48;;;;;;;40.90;24.97;;;7.60;99.90;;;;;;5073567;28;20169;-85
2023/04/16 05:34:14;;;;;;;38.70;25.33;;;7.60;99.90;;;;;;5073647;28;20600;-85
2023/04/16 05:36:40;;;;;;;43.17;25.57;;;7.70;99.90;;;;;;5073387;28;20165;-83
2023/04/16 05:39:06;;;;;;;40.07;23.83;;;7.70;99.90;;;;;;5055171;28;20613;-83
2023/04/16 05:41:32;;;;;;;42.70;25.27;;;7.60;99.90;;;;;;5055666;28;20180;-82
2023/04/16 05:43:58;;;;;;;40.43;24.63;;;7.70;99.90;;;;;;5055425;28;20668;-82
2023/04/16 05:46:24;;;;;;;42.60;24.47;;;7.70;99.90;;;;;;5073430;28;20165;-82
2023/04/16 05:48:50;;;;;;;45.50;24.10;;;7.70;99.90;;;;;;5055396;28;20176;-82
2023/04/16 05:51:16;;;;;;;35.57;22.73;;;7.70;99.90;;;;;;5055291;28;20184;-84
2023/04/16 05:53:42;;;;;;;39.50;24.23;;;7.70;99.90;;;;;;5054866;28;20655;-84
2023/04/16 05:56:07;;;;;;;41.60;24.40;;;7.70;99.90;;;;;;5055358;28;20177;-84
2023/04/16 05:58:33;;;;;;;38.20;23.53;;;7.80;99.90;;;;;;5055278;28;20216;-84
2023/04/16 06:01:00;;;;;;;39.57;23.33;;;7.80;99.90;;;;;;5055138;28;20169;-84
2023/04/16 06:03:26;;;;;;;39.77;23.90;;;7.80;99.90;;;;;;5073234;28;20265;-84
2023/04/16 06:05:52;;;;;;;41.57;23.80;;;7.80;99.90;;;;;;5073528;28;20177;-84
2023/04/16 06:08:18;;;;;;;40.43;23.57;;;7.80;99.90;;;;;;5055561;28;20192;-83
2023/04/16 06:10:47;;;;;;;40.47;23.33;;;7.80;99.90;;;;;;5054002;28;20174;-84
2023/04/16 06:13:13;;;;;;;35.67;22.77;;;7.80;99.90;;;;;;5073254;28;20493;-83
2023/04/16 06:15:38;;;;;;;37.17;22.53;;;7.80;99.90;;;;;;5055118;28;20177;-84
2023/04/16 06:18:04;;;;;;;38.03;22.83;;;7.80;99.90;;;;;;5055379;28;20643;-83
2023/04/16 06:20:30;;;;;;;37.07;22.33;;;7.80;99.90;;;;;;5073063;28;20170;-84
2023/04/16 06:22:56;;;;;;;41.07;22.67;;;7.90;99.90;;;;;;5053984;28;20193;-83
2023/04/16 06:25:22;;;;;;;36.80;22.13;;;7.90;99.90;;;;;;5073344;28;20633;-83
2023/04/16 06:27:48;;;;;;;36.30;21.90;;;7.90;99.90;;;;;;5055141;28;20196;-83
2023/04/16 06:43:41;;;;;;;35.50;21.70;;;7.80;99.90;;;;;;5076572;28;20163;-84
2023/04/16 06:46:07;;;;;;;44.87;22.07;;;7.90;99.90;;;;;;5076591;28;20157;-83
2023/04/16 06:48:33;;;;;;;40.03;23.27;;;7.80;99.90;;;;;;5075426;28;20506;-83
2023/04/16 06:50:59;;;;;;;36.57;22.10;;;7.90;99.90;;;;;;5076242;28;20169;-83
2023/04/16 06:53:25;;;;;;;33.60;21.60;;;7.90;99.90;;;;;;5076359;28;20208;-83
2023/04/16 06:55:50;;;;;;;39.07;21.80;;;7.90;99.90;;;;;;5075287;28;20185;-83
2023/04/16 06:58:16;;;;;;;37.83;22.07;;;7.90;99.90;;;;;;5076151;28;20287;-83
2023/04/16 07:00:42;;;;;;;37.07;21.13;;;7.90;99.90;;;;;;5076229;28;20184;-83
2023/04/16 07:03:08;;;;;;;39.70;22.87;;;7.90;99.90;;;;;;5058015;28;20177;-83
2023/04/16 07:05:33;;;;;;;36.33;21.90;;;8.10;99.90;;;;;;5075889;28;20173;-83
2023/04/16 07:07:59;;;;;;;42.50;22.75;;;8.00;99.90;;;;;;5076136;28;20616;-82
2023/04/16 07:10:25;;;;;;;38.27;21.97;;;8.00;99.90;;;;;;5075972;28;20165;-82
2023/04/16 07:12:51;;;;;;;34.77;21.97;;;8.10;99.90;;;;;;5057335;28;20185;-83
2023/04/16 07:15:17;;;;;;;38.27;22.07;;;8.10;99.90;;;;;;5076065;28;20173;-82
2023/04/16 07:17:42;;;;;;;33.17;21.10;;;8.10;99.90;;;;;;5075804;28;20209;-83
2023/04/16 07:20:08;;;;;;;34.00;22.20;;;8.00;99.90;;;;;;5058063;28;20271;-83
2023/04/16 07:22:34;;;;;;;39.73;22.67;;;8.00;99.90;;;;;;5075743;28;20173;-83
2023/04/16 07:25:00;;;;;;;34.07;22.07;;;8.00;99.90;;;;;;5075840;28;20192;-83
2023/04/16 07:27:26;;;;;;;39.17;21.93;;;8.00;99.90;;;;;;5075743;28;20220;-83
2023/04/16 07:29:51;;;;;;;38.90;21.63;;;7.90;99.90;;;;;;5075801;28;20173;-83
2023/04/16 07:32:17;;;;;;;40.77;22.47;;;7.90;99.90;;;;;;5075438;28;20195;-83
2023/04/16 07:34:43;;;;;;;38.83;22.90;;;8.00;99.90;;;;;;5057742;28;20280;-83
2023/04/16 07:37:09;;;;;;;32.37;20.07;;;8.00;99.90;;;;;;5075586;28;20208;-83
2023/04/16 07:39:34;;;;;;;32.10;20.13;;;8.00;99.90;;;;;;5075470;28;20177;-83
2023/04/16 07:42:01;;;;;;;32.97;20.07;;;8.00;99.90;;;;;;5075400;28;20253;-84
2023/04/16 07:44:26;;;;;;;30.43;20.53;;;8.00;99.90;;;;;;5075546;28;20671;-83
2023/04/16 07:46:52;;;;;;;31.80;20.40;;;8.00;99.90;;;;;;5074586;28;20244;-82
2023/04/16 07:49:18;;;;;;;33.53;19.63;;;8.00;99.90;;;;;;5075077;28;20161;-81
2023/04/16 07:51:44;;;;;;;31.53;19.63;;;8.10;99.90;;;;;;5075104;28;20177;-82
2023/04/16 07:54:09;;;;;;;30.83;19.87;;;8.10;99.90;;;;;;5055885;28;20235;-81
2023/04/16 07:56:35;;;;;;;28.07;18.40;;;8.10;99.90;;;;;;5075140;28;20185;-81
2023/04/16 07:59:01;;;;;;;37.00;21.00;;;8.00;99.90;;;;;;5056975;28;20696;-81
2023/04/16 08:01:27;;;;;;;36.13;20.30;;;8.00;99.90;;;;;;5057026;28;20180;-82
2023/04/16 08:03:52;;;;;;;34.90;21.03;;;7.90;99.90;;;;;;5056822;28;20217;-81
2023/04/16 08:06:18;;;;;;;32.07;19.23;;;7.90;99.90;;;;;;5074902;28;20181;-82
2023/04/16 08:08:44;;;;;;;31.03;18.93;;;7.90;99.90;;;;;;5056945;28;20181;-81
2023/04/16 08:11:10;;;;;;;27.97;19.33;;;7.90;99.90;;;;;;5074010;28;20643;-82
2023/04/16 08:13:35;;;;;;;34.33;21.00;;;7.90;99.90;;;;;;5056625;28;20187;-81
2023/04/16 08:16:01;;;;;;;33.37;20.33;;;7.90;99.90;;;;;;5056938;28;20181;-81
2023/04/16 08:18:27;;;;;;;38.23;20.43;;;7.90;99.90;;;;;;5074495;28;20283;-82
2023/04/16 08:20:52;;;;;;;31.17;19.70;;;7.90;99.90;;;;;;5056656;28;20607;-83
2023/04/16 08:23:18;;;;;;;29.23;18.90;;;7.90;99.90;;;;;;5056694;28;20177;-83
2023/04/16 08:25:44;;;;;;;29.83;19.80;;;7.90;99.90;;;;;;5074557;28;20611;-83
2023/04/16 08:28:09;;;;;;;31.53;20.10;;;7.80;99.90;;;;;;5057092;28;20268;-84
2023/04/16 08:30:35;;;;;;;36.07;20.37;;;7.70;99.90;;;;;;5056569;28;20181;-83
2023/04/16 08:33:01;;;;;;;33.33;22.17;;;7.70;99.90;;;;;;5056317;28;20184;-84
2023/04/16 08:35:27;;;;;;;34.90;21.50;;;7.70;99.90;;;;;;5056580;28;20169;-83
2023/04/16 08:37:53;;;;;;;38.60;22.07;;;7.70;99.90;;;;;;5074503;28;20209;-84
2023/04/16 08:40:18;;;;;;;37.33;21.53;;;7.80;99.90;;;;;;5074258;28;20173;-84
2023/04/16 08:42:57;;;;;;;38.90;23.73;;;7.80;99.90;;;;;;5055721;28;20177;-83
2023/04/16 08:45:25;;;;;;;41.20;24.37;;;7.80;99.90;;;;;;5074546;28;20246;-84
2023/04/16 08:47:52;;;;;;;38.73;23.47;;;7.80;99.90;;;;;;5074224;28;20184;-84
2023/04/16 08:50:23;;;;;;;34.63;21.27;;;7.80;99.90;;;;;;5055131;28;20247;-86
2023/04/16 08:52:58;;;;;;;34.77;20.97;;;7.80;99.90;;;;;;5055917;28;20218;-86
2023/04/16 08:55:48;;;;;;;35.80;21.87;;;7.80;99.90;;;;;;5056213;28;20216;-84
2023/04/16 08:58:18;;;;;;;32.20;20.33;;;7.80;99.90;;;;;;5041248;28;20228;-85
2023/04/16 09:00:45;;;;;;;42.13;22.60;;;7.80;99.90;;;;;;5055945;28;20177;-86
2023/04/16 09:03:11;;;;;;;35.43;21.97;;;7.80;99.90;;;;;;5055620;28;20205;-86
2023/04/16 09:05:38;;;;;;;37.03;21.87;;;7.90;99.90;;;;;;5056036;28;20259;-86
2023/04/16 09:08:05;;;;;;;34.63;21.57;;;7.90;99.90;;;;;;5073938;28;20223;-86
2023/04/16 09:10:31;;;;;;;33.70;20.67;;;7.80;99.90;;;;;;5074001;28;20160;-86
2023/04/16 09:12:57;;;;;;;33.50;20.03;;;7.90;99.90;;;;;;5073604;28;20181;-86
2023/04/16 09:15:28;;;;;;;34.63;20.33;;;7.90;99.90;;;;;;5073767;28;20176;-86
2023/04/16 09:17:55;;;;;;;47.93;30.10;;;7.90;99.90;;;;;;5055451;28;20276;-86
2023/04/16 09:20:21;;;;;;;37.90;21.03;;;7.90;99.90;;;;;;5074065;28;20495;-87
2023/04/16 09:22:47;;;;;;;36.20;20.73;;;7.90;99.90;;;;;;5072164;28;20679;-86
2023/04/16 09:25:13;;;;;;;35.47;22.10;;;7.90;99.90;;;;;;5055907;28;20281;-86
2023/04/16 09:27:42;;;;;;;34.03;20.37;;;8.00;99.90;;;;;;5056229;28;20231;-87
2023/04/16 09:30:22;;;;;;;31.17;19.43;;;8.00;99.90;;;;;;5074073;28;20162;-87
2023/04/16 09:32:49;;;;;;;30.53;19.30;;;8.00;99.90;;;;;;5055847;28;20257;-86
2023/04/16 09:35:16;;;;;;;31.93;19.70;;;8.00;99.90;;;;;;5055844;28;20178;-86
2023/04/16 09:37:53;;;;;;;31.17;19.27;;;8.00;99.90;;;;;;5055883;28;20200;-86
2023/04/16 09:40:23;;;;;;;31.70;18.93;;;8.10;99.90;;;;;;5055959;28;20263;-87
2023/04/16 09:42:49;;;;;;;33.53;20.07;;;8.10;99.90;;;;;;5055653;28;20177;-87
2023/04/16 09:45:15;;;;;;;33.23;19.00;;;8.00;99.90;;;;;;5055852;28;20192;-87
2023/04/16 09:47:44;;;;;;;34.33;20.57;;;8.10;99.90;;;;;;5073872;28;20173;-86
2023/04/16 09:50:15;;;;;;;31.00;19.97;;;8.10;99.90;;;;;;5056080;28;20184;-86
2023/04/16 09:52:43;;;;;;;37.83;21.97;;;8.20;99.90;;;;;;5055814;28;20593;-87
2023/04/16 09:55:08;;;;;;;45.90;23.53;;;8.20;99.90;;;;;;5055920;28;20635;-87
2023/04/16 09:57:37;;;;;;;36.40;23.90;;;8.30;99.90;;;;;;5055968;28;20221;-87
2023/04/16 10:00:07;;;;;;;40.80;22.73;;;8.30;99.90;;;;;;5056052;28;20169;-86
2023/04/16 10:02:34;;;;;;;37.03;22.70;;;8.20;99.90;;;;;;5056122;28;20170;-87
2023/04/16 10:05:03;;;;;;;33.80;19.90;;;8.20;99.90;;;;;;5073568;28;20178;-88
2023/04/16 10:07:33;;;;;;;32.50;19.50;;;8.20;99.90;;;;;;5055893;28;20185;-87
2023/04/16 10:09:59;;;;;;;34.50;20.07;;;8.10;99.90;;;;;;5056630;28;20512;-87
2023/04/16 10:12:26;;;;;;;31.83;19.47;;;8.10;99.90;;;;;;5059438;28;20184;-87
2023/04/16 10:14:51;;;;;;;33.80;21.60;;;8.10;99.90;;;;;;5059739;28;20176;-87
2023/04/16 10:17:18;;;;;;;36.53;20.80;;;8.20;99.90;;;;;;5059794;28;20205;-87
2023/04/16 10:19:45;;;;;;;29.87;20.17;;;8.20;99.90;;;;;;5077269;28;20238;-88
2023/04/16 10:22:11;;;;;;;29.53;18.67;;;8.30;99.90;;;;;;5059590;28;20261;-86
2023/04/16 10:24:37;;;;;;;33.67;19.63;;;8.30;99.90;;;;;;5059903;28;20496;-87
2023/04/16 10:27:03;;;;;;;33.30;20.23;;;8.30;99.90;;;;;;5059673;28;20212;-87
2023/04/16 10:29:30;;;;;;;33.50;20.07;;;8.30;99.90;;;;;;5077505;28;20557;-87
2023/04/16 10:31:57;;;;;;;34.97;20.27;;;8.40;99.90;;;;;;5059348;28;20518;-87
2023/04/16 10:34:24;;;;;;;28.30;18.47;;;8.40;99.90;;;;;;5059640;28;20415;-87
2023/04/16 10:36:51;;;;;;;29.67;20.07;;;8.50;99.90;;;;;;5077412;28;20192;-87
2023/04/16 10:39:23;;;;;;;28.30;19.17;;;8.60;99.90;;;;;;5056720;28;20585;-87
2023/04/16 10:42:10;;;;;;;31.70;19.30;;;8.60;99.90;;;;;;5067864;28;20190;-88
2023/04/16 10:44:36;;;;;;;30.53;19.40;;;8.70;99.90;;;;;;5059894;28;20193;-87
2023/04/16 10:47:08;;;;;;;28.83;18.43;;;8.70;99.90;;;;;;5080916;28;20204;-88
2023/04/16 10:49:36;;;;;;;30.77;19.67;;;8.90;99.90;;;;;;5072682;28;20176;-87
2023/04/16 10:52:18;;;;;;;31.03;18.43;;;8.90;99.90;;;;;;5074007;28;20189;-88
2023/04/16 10:54:48;;;;;;;34.67;19.20;;;9.00;99.90;;;;;;5069312;28;20243;-87
2023/04/16 10:57:16;;;;;;;33.13;19.30;;;9.20;99.90;;;;;;5066892;28;20204;-89
2023/04/16 10:59:43;;;;;;;31.85;19.42;;;9.30;99.90;;;;;;5055639;28;20191;-85
2023/04/16 11:02:14;;;;;;;28.63;18.83;;;9.50;99.90;;;;;;5064588;28;20275;-85
2023/04/16 11:04:43;;;;;;;29.60;18.85;;;9.50;99.90;;;;;;5068361;28;20185;-85
2023/04/16 11:07:18;;;;;;;30.63;18.98;;;9.50;99.90;;;;;;5059267;28;20181;-85
2023/04/16 11:10:04;;;;;;;26.73;18.83;;;9.50;99.90;;;;;;5084840;28;20276;-85
2023/04/16 11:12:36;;;;;;;28.75;17.25;;;9.60;99.90;;;;;;5066534;28;20305;-86
2023/04/16 11:15:13;;;;;;;24.88;17.38;;;9.50;99.90;;;;;;5066936;28;20224;-86
2023/04/16 11:17:46;;;;;;;29.38;18.35;;;9.50;99.90;;;;;;5091359;28;20204;-86
2023/04/16 11:20:20;;;;;;;29.70;18.20;;;9.60;99.90;;;;;;5076243;28;20192;-85
2023/04/16 11:22:54;;;;;;;28.70;18.85;;;9.60;99.90;;;;;;5070693;28;20180;-84
2023/04/16 11:25:21;;;;;;;29.13;19.35;;;9.60;99.90;;;;;;5065885;28;20184;-84
2023/04/16 11:27:48;;;;;;;23.75;16.90;;;9.70;99.90;;;;;;5066089;28;20519;-86
2023/04/16 11:30:16;;;;;;;26.10;17.40;;;9.80;99.90;;;;;;5087302;28;20212;-85
2023/04/16 11:32:43;;;;;;;31.35;17.88;;;9.90;99.90;;;;;;5065120;28;20324;-84
2023/04/16 11:35:17;;;;;;;29.83;17.77;;;10.00;99.90;;;;;;5083339;28;20623;-83
2023/04/16 11:37:44;;;;;;;29.80;18.45;;;10.00;99.90;;;;;;5071348;28;20243;-85
2023/04/16 11:40:11;;;;;;;29.25;18.15;;;10.10;99.90;;;;;;5068887;28;20196;-84
2023/04/16 11:42:42;;;;;;;34.15;20.10;;;10.20;99.90;;;;;;5065393;28;20203;-84
2023/04/16 11:45:10;;;;;;;29.65;18.00;;;10.20;99.90;;;;;;5055386;28;20190;-84
2023/04/16 11:47:46;;;;;;;28.98;18.35;;;10.30;99.90;;;;;;5037847;28;20624;-83
2023/04/16 11:50:22;;;;;;;26.83;16.80;;;10.30;99.90;;;;;;5037255;28;20597;-83
2023/04/16 11:52:50;;;;;;;26.67;16.73;;;10.40;99.90;;;;;;5055268;28;20238;-85
2023/04/16 11:55:16;;;;;;;24.95;16.13;;;10.50;99.90;;;;;;5040013;28;20177;-84
2023/04/16 11:57:41;;;;;;;25.75;17.33;;;10.50;99.90;;;;;;5057452;28;20594;-85
2023/04/16 12:00:14;;;;;;;22.13;15.45;;;10.50;99.90;;;;;;5075387;28;20252;-86
2023/04/16 12:02:45;;;;;;;25.35;15.93;;;10.60;99.90;;;;;;5057101;28;20165;-83
2023/04/16 12:05:32;;;;;;;25.27;16.13;;;10.60;99.90;;;;;;5075147;28;20173;-83
2023/04/16 12:08:06;;;;;;;25.02;15.93;;;10.60;99.90;;;;;;5057299;28;20195;-84
2023/04/16 12:10:36;;;;;;;22.52;16.20;;;10.70;99.90;;;;;;5075043;28;20600;-83
2023/04/16 12:13:11;;;;;;;23.08;15.65;;;10.70;99.90;;;;;;5056648;28;20627;-83
2023/04/16 12:15:48;;;;;;;25.20;16.75;;;10.80;99.90;;;;;;5056801;28;20180;-82
2023/04/16 12:18:15;;;;;;;22.95;15.35;;;10.80;99.90;;;;;;5056646;28;20216;-84
2023/04/16 12:20:43;;;;;;;23.40;15.40;;;10.80;99.90;;;;;;5056917;28;20196;-83
2023/04/16 12:23:10;;;;;;;23.60;15.90;;;10.80;99.90;;;;;;5074985;28;20173;-82
2023/04/16 12:25:36;;;;;;;21.92;15.45;;;10.80;99.90;;;;;;5074730;28;20490;-82
2023/04/16 12:28:02;;;;;;;22.02;16.17;;;10.80;99.90;;;;;;5074912;28;20169;-84
2023/04/16 12:30:28;;;;;;;23.25;15.60;;;10.80;99.90;;;;;;5056929;28;20562;-84
2023/04/16 12:33:17;;;;;;;26.90;16.60;;;10.80;99.90;;;;;;5056414;28;20600;-82
2023/04/16 12:35:43;;;;;;;22.52;15.30;;;10.80;99.90;;;;;;5074706;28;20223;-83
2023/04/16 12:38:10;;;;;;;21.38;14.75;;;10.80;99.90;;;;;;5074513;28;20212;-83
2023/04/16 12:40:37;;;;;;;21.88;14.98;;;10.90;99.90;;;;;;5074558;28;20161;-83
2023/04/16 12:43:03;;;;;;;20.38;13.85;;;10.90;99.90;;;;;;5074651;28;20207;-83
2023/04/16 12:45:28;;;;;;;20.60;13.20;;;11.00;99.90;;;;;;5074431;28;20200;-82
2023/04/16 12:47:54;;;;;;;19.70;13.43;;;11.00;99.90;;;;;;5056386;28;20226;-83
2023/04/16 12:50:20;;;;;;;18.75;14.00;;;11.00;99.90;;;;;;5055953;28;20185;-82
2023/04/16 12:52:47;;;;;;;19.25;13.45;;;11.00;99.90;;;;;;5073906;28;20522;-82